Time;durP1;ratioP1;P1;durP2;ratioP2;P2;SDS_P1;SDS_P2;PMS_P1;PMS_P2;Temp;Humidity;BMP_temperature;BMP_pressure;BME280_temperature;BME280_humidity;BME280_pressure;Samples;Min_cycle;Max_cycle;Signal;HPM_P1;HPM_P2
2023/09/23 00:01:04;;;;;;;1.63;0.82;;;12.60;97.50;;;;;;5034540;28;20046;-80
2023/09/23 00:03:33;;;;;;;1.35;0.77;;;12.50;97.50;;;;;;5018062;28;20042;-80
2023/09/23 00:06:02;;;;;;;1.77;0.88;;;12.60;97.50;;;;;;5016643;28;20104;-80
2023/09/23 00:08:29;;;;;;;1.17;0.60;;;12.60;97.50;;;;;;5026992;28;20049;-80
2023/09/23 00:10:57;;;;;;;2.08;0.85;;;12.50;97.50;;;;;;5020339;28;20139;-80
2023/09/23 00:13:25;;;;;;;2.00;0.68;;;12.50;97.50;;;;;;5052698;28;20041;-80
2023/09/23 00:15:55;;;;;;;2.22;0.65;;;12.40;97.50;;;;;;5034205;28;20446;-80
2023/09/23 00:18:24;;;;;;;0.80;0.40;;;12.40;97.60;;;;;;5018191;28;20056;-85
2023/09/23 00:20:54;;;;;;;0.63;0.30;;;12.30;97.60;;;;;;4997393;28;20049;-86
2023/09/23 00:23:21;;;;;;;0.82;0.30;;;12.30;97.60;;;;;;4981715;28;20412;-85
2023/09/23 00:25:49;;;;;;;0.85;0.30;;;12.20;97.60;;;;;;5016789;28;20042;-85
2023/09/23 00:28:16;;;;;;;0.60;0.30;;;12.20;97.60;;;;;;5010045;28;20046;-85
2023/09/23 00:30:45;;;;;;;0.40;0.20;;;12.20;97.60;;;;;;5011035;28;20539;-85
2023/09/23 00:33:17;;;;;;;0.90;0.40;;;12.10;97.70;;;;;;4999515;28;20404;-85
2023/09/23 00:35:45;;;;;;;1.05;0.30;;;12.10;97.70;;;;;;5001605;28;20050;-85
2023/09/23 00:38:12;;;;;;;1.15;0.40;;;12.10;97.70;;;;;;4989606;28;20042;-85
2023/09/23 00:40:41;;;;;;;0.52;0.30;;;12.00;97.70;;;;;;5013799;28;20042;-85
2023/09/23 00:43:26;;;;;;;0.77;0.40;;;12.00;97.70;;;;;;5023982;28;20046;-85
2023/09/23 00:45:56;;;;;;;0.88;0.20;;;12.00;97.70;;;;;;5002607;28;20049;-84
2023/09/23 00:48:24;;;;;;;1.60;0.30;;;11.90;97.70;;;;;;4993420;28;20042;-85
2023/09/23 00:50:56;;;;;;;0.88;0.20;;;12.00;97.70;;;;;;5021179;28;20041;-85
2023/09/23 00:53:25;;;;;;;0.93;0.30;;;11.90;97.70;;;;;;5010107;28;20056;-84
2023/09/23 00:55:55;;;;;;;1.85;0.20;;;11.90;97.70;;;;;;5008619;28;20414;-85
2023/09/23 00:58:24;;;;;;;0.95;0.30;;;11.90;97.70;;;;;;5018888;28;20096;-84
2023/09/23 01:00:54;;;;;;;0.63;0.20;;;11.90;97.70;;;;;;5021007;28;20069;-84
2023/09/23 01:03:23;;;;;;;0.95;0.40;;;11.90;97.70;;;;;;5016870;28;20045;-80
2023/09/23 01:06:08;;;;;;;1.08;0.50;;;12.00;97.60;;;;;;5004552;28;20049;-80
2023/09/23 01:08:38;;;;;;;1.42;0.47;;;12.00;97.50;;;;;;5013117;28;20046;-80
2023/09/23 01:11:07;;;;;;;1.23;0.63;;;12.00;97.50;;;;;;4997662;28;20412;-80
2023/09/23 01:13:35;;;;;;;1.00;0.43;;;12.00;97.40;;;;;;4981930;28;20046;-80
2023/09/23 01:16:12;;;;;;;1.67;0.60;;;12.00;97.40;;;;;;4990317;28;20415;-80
2023/09/23 01:18:42;;;;;;;1.10;0.60;;;12.00;97.30;;;;;;5013232;28;20068;-80
2023/09/23 01:21:10;;;;;;;1.23;0.50;;;12.00;97.40;;;;;;4991977;28;20057;-80
2023/09/23 01:23:43;;;;;;;1.10;0.38;;;12.00;97.40;;;;;;5048753;28;20140;-80
2023/09/23 01:26:13;;;;;;;1.33;0.57;;;12.00;97.40;;;;;;5035863;28;20049;-80
2023/09/23 01:28:40;;;;;;;1.98;0.68;;;11.90;97.40;;;;;;5009571;28;20037;-80
2023/09/23 01:31:07;;;;;;;3.28;1.20;;;11.90;97.40;;;;;;5048531;28;20439;-80
2023/09/23 01:33:35;;;;;;;1.13;0.50;;;11.90;97.40;;;;;;5034976;28;20056;-80
2023/09/23 01:36:11;;;;;;;1.80;0.80;;;11.80;97.40;;;;;;5018750;28;20577;-80
2023/09/23 01:38:41;;;;;;;1.20;0.40;;;11.80;97.40;;;;;;5014244;28;20044;-80
2023/09/23 01:41:08;;;;;;;1.20;0.52;;;11.80;97.50;;;;;;5051340;28;20083;-80
2023/09/23 01:43:35;;;;;;;1.65;0.60;;;11.90;97.50;;;;;;5034693;28;20051;-79
2023/09/23 01:46:03;;;;;;;2.05;0.60;;;11.90;97.50;;;;;;5008046;28;20411;-80
2023/09/23 01:48:32;;;;;;;1.30;0.57;;;11.90;97.40;;;;;;5019021;28;20041;-80
2023/09/23 01:50:59;;;;;;;1.45;0.50;;;11.90;97.40;;;;;;5018477;28;20045;-80
2023/09/23 01:53:27;;;;;;;2.53;1.00;;;11.90;97.50;;;;;;5039440;28;20084;-80
2023/09/23 01:55:55;;;;;;;1.95;0.90;;;11.90;97.50;;;;;;5018696;28;20511;-80
2023/09/23 01:58:23;;;;;;;2.28;0.98;;;12.00;97.50;;;;;;5005292;28;20069;-80
2023/09/23 02:00:55;;;;;;;2.53;1.10;;;12.00;97.40;;;;;;5018390;28;20041;-81
2023/09/23 02:03:23;;;;;;;2.83;1.30;;;12.10;97.40;;;;;;5035237;28;20045;-80
2023/09/23 02:05:51;;;;;;;4.15;1.25;;;12.10;97.30;;;;;;5034787;28;20057;-80
2023/09/23 02:08:18;;;;;;;3.10;1.40;;;12.20;97.30;;;;;;5034600;28;20045;-80
2023/09/23 02:10:45;;;;;;;3.35;1.55;;;12.20;97.30;;;;;;5025352;28;20135;-81
2023/09/23 02:13:14;;;;;;;3.42;1.77;;;12.20;97.20;;;;;;5024964;28;20132;-80
2023/09/23 02:15:45;;;;;;;3.67;1.80;;;12.30;97.20;;;;;;5018129;28;20104;-80
2023/09/23 02:18:14;;;;;;;4.03;1.70;;;12.30;97.20;;;;;;5030348;28;20053;-80
2023/09/23 02:20:42;;;;;;;4.68;2.30;;;12.40;97.20;;;;;;5037772;28;20048;-80
2023/09/23 02:23:10;;;;;;;5.60;2.20;;;12.40;97.10;;;;;;5030555;28;20049;-80
2023/09/23 02:25:37;;;;;;;4.07;2.20;;;12.40;97.10;;;;;;5050420;28;20095;-80
2023/09/23 02:28:06;;;;;;;5.07;2.80;;;12.50;97.10;;;;;;5037733;28;20091;-81
2023/09/23 02:30:33;;;;;;;5.57;2.95;;;12.50;97.10;;;;;;5038180;28;20083;-81
2023/09/23 02:33:02;;;;;;;4.53;2.40;;;12.50;97.00;;;;;;5034215;28;20136;-80
2023/09/23 02:35:29;;;;;;;6.28;2.78;;;12.50;97.00;;;;;;5033408;28;20049;-81
2023/09/23 02:37:58;;;;;;;5.20;3.13;;;12.50;97.00;;;;;;5054559;28;20045;-80
2023/09/23 02:40:27;;;;;;;5.07;3.08;;;12.60;97.00;;;;;;5021824;28;20119;-80
2023/09/23 02:42:56;;;;;;;6.00;3.05;;;12.60;97.00;;;;;;5038219;28;20068;-81
2023/09/23 02:45:24;;;;;;;6.68;4.18;;;12.60;96.90;;;;;;5050369;28;20042;-81
2023/09/23 02:47:52;;;;;;;6.88;4.22;;;12.60;96.90;;;;;;5042609;28;20041;-81
2023/09/23 02:50:20;;;;;;;6.68;4.15;;;12.60;96.90;;;;;;5025341;28;20047;-81
2023/09/23 02:52:50;;;;;;;6.45;4.18;;;12.60;97.20;;;;;;5013901;28;20061;-81
2023/09/23 02:55:20;;;;;;;7.32;4.55;;;12.70;96.90;;;;;;4998897;28;20042;-81
2023/09/23 02:57:49;;;;;;;8.30;5.57;;;12.60;96.90;;;;;;5012475;28;20049;-80
2023/09/23 03:00:19;;;;;;;9.00;5.75;;;12.70;96.90;;;;;;5054361;28;20056;-81
2023/09/23 03:02:53;;;;;;;9.20;5.97;;;12.60;96.90;;;;;;5011036;28;20438;-81
2023/09/23 03:05:31;;;;;;;9.55;6.80;;;12.70;96.90;;;;;;5025340;28;20037;-80
2023/09/23 03:07:59;;;;;;;14.20;8.43;;;12.60;96.90;;;;;;5032615;28;20041;-81
2023/09/23 03:10:49;;;;;;;11.13;7.30;;;12.60;96.90;;;;;;5015221;28;20505;-81
2023/09/23 03:13:17;;;;;;;9.15;6.35;;;12.60;96.90;;;;;;5029033;28;20099;-81
2023/09/23 03:15:52;;;;;;;9.07;5.57;;;12.60;96.90;;;;;;5036763;28;20067;-81
2023/09/23 03:18:33;;;;;;;9.07;4.95;;;12.60;96.90;;;;;;5037744;28;20105;-80
2023/09/23 03:21:08;;;;;;;8.88;5.75;;;12.60;96.90;;;;;;5047082;28;20050;-81
2023/09/23 03:23:40;;;;;;;7.68;4.57;;;12.70;96.90;;;;;;5050750;28;20411;-80
2023/09/23 03:26:09;;;;;;;7.90;4.40;;;12.70;97.20;;;;;;5021386;28;20045;-81
2023/09/23 03:28:38;;;;;;;7.30;4.82;;;12.70;96.90;;;;;;5026411;28;20064;-81
2023/09/23 03:31:09;;;;;;;6.88;4.47;;;12.70;96.90;;;;;;5053898;28;20049;-81
2023/09/23 03:33:42;;;;;;;7.93;5.10;;;12.80;96.90;;;;;;5022910;28;20383;-81
2023/09/23 03:36:20;;;;;;;8.65;5.22;;;12.70;96.90;;;;;;5037515;28;20443;-81
2023/09/23 03:38:49;;;;;;;7.22;4.53;;;12.80;96.90;;;;;;5036402;28;20563;-81
2023/09/23 03:41:16;;;;;;;7.25;4.43;;;12.80;96.90;;;;;;5020775;28;20414;-81
2023/09/23 03:43:43;;;;;;;7.55;4.38;;;12.80;96.90;;;;;;5037138;28;20052;-80
2023/09/23 03:46:16;;;;;;;10.48;5.35;;;12.80;96.90;;;;;;5030928;28;20064;-81
2023/09/23 03:48:44;;;;;;;8.35;4.53;;;12.80;96.90;;;;;;5018331;28;20050;-80
2023/09/23 03:51:14;;;;;;;8.70;5.38;;;12.80;96.90;;;;;;5034554;28;20041;-81
2023/09/23 03:53:45;;;;;;;8.35;5.00;;;12.80;96.90;;;;;;5000885;28;20195;-80
2023/09/23 03:56:12;;;;;;;7.43;4.15;;;12.80;96.90;;;;;;5024720;28;20133;-80
2023/09/23 03:58:40;;;;;;;8.35;5.22;;;12.80;96.90;;;;;;5028841;28;20053;-81
2023/09/23 04:01:13;;;;;;;8.38;5.13;;;12.80;96.90;;;;;;5036581;28;20495;-80
2023/09/23 04:03:41;;;;;;;10.80;7.45;;;12.80;96.90;;;;;;5026974;28;20045;-81
2023/09/23 04:06:08;;;;;;;9.50;6.10;;;12.80;96.90;;;;;;5034385;28;20033;-81
2023/09/23 04:08:38;;;;;;;10.13;6.63;;;12.80;96.80;;;;;;5053025;28;20135;-81
2023/09/23 04:11:05;;;;;;;12.63;6.32;;;12.80;96.90;;;;;;5028442;28;20037;-81
2023/09/23 04:13:32;;;;;;;10.77;6.60;;;12.80;96.90;;;;;;5034486;28;20513;-80
2023/09/23 04:16:00;;;;;;;8.55;5.75;;;12.80;96.90;;;;;;5019713;28;20056;-81
2023/09/23 04:18:31;;;;;;;9.80;6.72;;;12.70;96.90;;;;;;5024232;28;20488;-81
2023/09/23 04:21:01;;;;;;;10.45;6.72;;;12.70;96.90;;;;;;5053032;28;20041;-81
2023/09/23 04:23:28;;;;;;;12.20;7.00;;;12.80;96.90;;;;;;5039146;28;20045;-80
2023/09/23 04:25:55;;;;;;;9.25;6.32;;;12.70;96.90;;;;;;5003686;28;20064;-80
2023/09/23 04:28:22;;;;;;;9.80;6.10;;;12.70;96.90;;;;;;5020110;28;20048;-81
2023/09/23 04:30:57;;;;;;;11.55;7.63;;;12.70;96.90;;;;;;5019774;28;20136;-80
2023/09/23 04:33:27;;;;;;;13.52;8.98;;;12.80;96.90;;;;;;5020555;28;20450;-81
2023/09/23 04:35:58;;;;;;;13.10;8.40;;;12.70;96.90;;;;;;5033694;28;20056;-81
2023/09/23 04:38:26;;;;;;;10.82;6.22;;;12.70;96.90;;;;;;5045466;28;20041;-80
2023/09/23 04:40:53;;;;;;;10.75;5.88;;;12.70;96.90;;;;;;5003437;28;20041;-80
2023/09/23 04:43:20;;;;;;;10.73;6.20;;;12.70;96.90;;;;;;5017957;28;20056;-80
2023/09/23 04:45:48;;;;;;;9.52;6.60;;;12.70;96.90;;;;;;5035737;28;20045;-80
2023/09/23 04:48:18;;;;;;;10.52;6.25;;;12.70;96.90;;;;;;5034350;28;20454;-80
2023/09/23 04:50:46;;;;;;;9.55;6.00;;;12.70;96.90;;;;;;5042647;28;20131;-81
2023/09/23 04:53:14;;;;;;;9.98;5.45;;;12.70;96.90;;;;;;5051207;28;20509;-81
2023/09/23 04:55:42;;;;;;;8.73;5.75;;;12.80;96.90;;;;;;5052135;28;20052;-81
2023/09/23 04:58:09;;;;;;;11.35;5.25;;;12.80;96.90;;;;;;5017838;28;20044;-80
2023/09/23 05:00:40;;;;;;;13.07;8.73;;;12.70;96.90;;;;;;5025417;28;20147;-80
2023/09/23 05:03:08;;;;;;;10.73;7.05;;;12.70;96.80;;;;;;5050124;28;20049;-85
2023/09/23 05:05:36;;;;;;;11.80;8.32;;;12.70;96.80;;;;;;5015829;28;20049;-80
2023/09/23 05:08:09;;;;;;;16.23;11.82;;;12.70;96.80;;;;;;5007095;28;20042;-80
2023/09/23 05:10:39;;;;;;;15.75;10.73;;;12.70;96.80;;;;;;5028214;28;20064;-81
2023/09/23 05:13:19;;;;;;;15.60;10.50;;;12.70;96.80;;;;;;5009334;28;20503;-80
2023/09/23 05:15:47;;;;;;;15.55;8.60;;;12.70;96.90;;;;;;5016497;28;20064;-80
2023/09/23 05:18:14;;;;;;;13.27;7.72;;;12.60;96.80;;;;;;5005538;28;20061;-80
2023/09/23 05:20:41;;;;;;;12.07;8.15;;;12.70;96.90;;;;;;5018520;28;20042;-80
2023/09/23 05:23:08;;;;;;;10.77;8.05;;;12.70;96.90;;;;;;5018252;28;20139;-80
2023/09/23 05:25:37;;;;;;;10.45;7.07;;;12.70;96.80;;;;;;5020246;28;20036;-80
2023/09/23 05:28:04;;;;;;;9.73;6.75;;;12.70;96.90;;;;;;5017443;28;20049;-81
2023/09/23 05:30:33;;;;;;;10.90;7.00;;;12.70;96.90;;;;;;5017597;28;20064;-80
2023/09/23 05:33:00;;;;;;;10.63;7.22;;;12.70;96.90;;;;;;5016333;28;20084;-80
2023/09/23 05:35:27;;;;;;;10.27;6.97;;;12.70;96.90;;;;;;5000991;28;20041;-80
2023/09/23 05:37:55;;;;;;;11.55;8.02;;;12.70;96.90;;;;;;5025429;28;20115;-81
2023/09/23 05:42:53;;;;;;;9.88;6.63;;;12.70;96.90;;;;;;5017421;28;20079;-81
2023/09/23 05:45:24;;;;;;;8.80;6.53;;;12.70;96.90;;;;;;5015644;28;20045;-80
2023/09/23 05:47:53;;;;;;;9.80;6.45;;;12.70;96.90;;;;;;5023161;28;20045;-80
2023/09/23 05:50:21;;;;;;;10.23;6.75;;;12.60;96.90;;;;;;5023763;28;20045;-80
2023/09/23 05:52:53;;;;;;;11.50;6.22;;;12.60;96.90;;;;;;5000535;28;20095;-80
2023/09/23 05:55:20;;;;;;;8.95;6.07;;;12.60;96.90;;;;;;5035056;28;20454;-80
2023/09/23 05:57:49;;;;;;;7.85;5.28;;;12.60;96.90;;;;;;5032655;28;20442;-80
2023/09/23 06:00:17;;;;;;;6.97;4.80;;;12.70;96.90;;;;;;5035086;28;20045;-80
2023/09/23 06:02:45;;;;;;;8.18;5.35;;;12.70;96.90;;;;;;5020709;28;20144;-80
2023/09/23 06:05:13;;;;;;;7.25;5.20;;;12.70;96.80;;;;;;5022294;28;20064;-81
2023/09/23 06:07:41;;;;;;;8.77;6.10;;;12.70;96.80;;;;;;5039067;28;20083;-80
2023/09/23 06:10:11;;;;;;;9.25;5.70;;;12.70;96.80;;;;;;5006546;28;20137;-80
2023/09/23 06:12:39;;;;;;;7.40;5.28;;;12.70;96.80;;;;;;5029389;28;20037;-80
2023/09/23 06:15:08;;;;;;;6.90;4.72;;;12.70;96.80;;;;;;5055308;28;20140;-80
2023/09/23 06:17:37;;;;;;;6.32;4.63;;;12.70;96.80;;;;;;5023025;28;20056;-80
2023/09/23 06:20:06;;;;;;;8.45;5.30;;;12.70;96.80;;;;;;5051042;28;20052;-80
2023/09/23 06:22:34;;;;;;;7.40;4.88;;;12.80;96.80;;;;;;5022227;28;20067;-80
2023/09/23 06:25:03;;;;;;;8.55;5.40;;;12.80;96.70;;;;;;5029803;28;20037;-80
2023/09/23 06:27:30;;;;;;;6.70;4.75;;;12.80;96.70;;;;;;5043279;28;20562;-80
2023/09/23 06:29:57;;;;;;;7.53;4.90;;;12.80;96.70;;;;;;5022822;28;20446;-80
2023/09/23 06:32:27;;;;;;;9.48;5.65;;;12.80;96.70;;;;;;5009085;28;20459;-80
2023/09/23 06:34:55;;;;;;;10.02;5.45;;;12.80;96.70;;;;;;5021350;28;20053;-80
2023/09/23 06:37:22;;;;;;;8.88;5.00;;;12.80;96.60;;;;;;5022921;28;20052;-80
2023/09/23 06:39:49;;;;;;;8.30;5.18;;;12.80;96.60;;;;;;5010423;28;20107;-80
2023/09/23 06:42:16;;;;;;;8.68;4.75;;;12.90;96.60;;;;;;5013280;28;20104;-80
2023/09/23 06:44:43;;;;;;;9.65;5.38;;;12.90;96.60;;;;;;5032574;28;20041;-80
2023/09/23 06:47:10;;;;;;;9.38;5.63;;;13.00;96.90;;;;;;5011823;28;20071;-80
2023/09/23 06:49:40;;;;;;;7.78;4.90;;;13.00;96.50;;;;;;5035220;28;20051;-80
2023/09/23 06:52:08;;;;;;;11.23;6.55;;;13.10;96.50;;;;;;5054352;28;20403;-80
2023/09/23 06:54:41;;;;;;;8.02;5.00;;;13.10;96.40;;;;;;5022451;28;20068;-80
2023/09/23 06:57:08;;;;;;;8.70;5.93;;;13.10;96.40;;;;;;5007458;28;20049;-80
2023/09/23 06:59:35;;;;;;;8.48;5.97;;;13.10;96.40;;;;;;5003483;28;20076;-80
2023/09/23 07:02:05;;;;;;;8.40;5.60;;;13.10;96.40;;;;;;5036854;28;20052;-80
2023/09/23 07:04:36;;;;;;;7.93;5.03;;;13.10;96.40;;;;;;5032653;28;20095;-79
2023/09/23 07:07:05;;;;;;;11.38;7.68;;;13.10;96.30;;;;;;5008273;28;20041;-80
2023/09/23 07:09:33;;;;;;;10.35;6.53;;;13.10;96.30;;;;;;5029627;28;20487;-80
2023/09/23 07:12:00;;;;;;;7.45;5.80;;;13.10;96.30;;;;;;5034464;28;20045;-80
2023/09/23 07:14:29;;;;;;;11.60;6.47;;;13.10;96.30;;;;;;5028227;28;20051;-79
2023/09/23 07:16:56;;;;;;;7.32;5.35;;;13.20;96.30;;;;;;5020803;28;20056;-80
2023/09/23 07:19:26;;;;;;;6.97;4.68;;;13.20;96.30;;;;;;5021605;28;20067;-80
2023/09/23 07:21:53;;;;;;;10.00;6.18;;;13.30;96.30;;;;;;5032454;28;20049;-80
2023/09/23 07:24:20;;;;;;;7.15;5.45;;;13.40;96.20;;;;;;5015609;28;20044;-80
2023/09/23 07:26:46;;;;;;;8.75;5.13;;;13.40;96.10;;;;;;5031168;28;20046;-85
2023/09/23 07:29:14;;;;;;;7.78;4.90;;;13.40;96.10;;;;;;5030568;28;20046;-84
2023/09/23 07:31:41;;;;;;;7.75;5.28;;;13.50;96.10;;;;;;5014451;28;20044;-85
2023/09/23 07:34:08;;;;;;;8.82;5.95;;;13.50;96.30;;;;;;5052839;28;20048;-84
2023/09/23 07:36:45;;;;;;;6.72;4.85;;;13.50;96.00;;;;;;5035854;28;20049;-83
2023/09/23 07:39:12;;;;;;;9.00;4.82;;;13.60;96.00;;;;;;5035753;28;20053;-81
2023/09/23 07:41:40;;;;;;;9.35;5.28;;;13.70;95.90;;;;;;5013514;28;20124;-81
2023/09/23 07:44:07;;;;;;;5.00;3.60;;;13.70;95.90;;;;;;5023568;28;20488;-81
2023/09/23 07:46:37;;;;;;;9.93;4.10;;;13.70;95.90;;;;;;4994801;28;20380;-82
2023/09/23 07:49:06;;;;;;;9.15;5.20;;;13.70;95.80;;;;;;5007013;28;20038;-81
2023/09/23 07:51:34;;;;;;;9.48;5.20;;;13.80;95.80;;;;;;5019525;28;20029;-81
2023/09/23 07:54:04;;;;;;;8.48;5.32;;;13.80;95.60;;;;;;5036725;28;20068;-80
2023/09/23 07:56:32;;;;;;;6.53;4.47;;;13.90;95.70;;;;;;5036953;28;20410;-81
2023/09/23 07:58:59;;;;;;;5.78;3.63;;;13.90;95.70;;;;;;5029715;28;20526;-78
2023/09/23 08:01:26;;;;;;;5.63;3.47;;;13.90;95.70;;;;;;5050682;28;20064;-78
2023/09/23 08:03:53;;;;;;;6.38;4.00;;;13.90;95.70;;;;;;5013876;28;20487;-79
2023/09/23 08:06:20;;;;;;;6.97;4.90;;;14.00;95.70;;;;;;5007842;28;20041;-79
2023/09/23 08:08:48;;;;;;;5.90;4.13;;;14.00;95.50;;;;;;4998208;28;20049;-79
2023/09/23 08:11:15;;;;;;;4.93;3.58;;;14.00;95.50;;;;;;5013652;28;20056;-83
2023/09/23 08:13:42;;;;;;;6.53;4.07;;;14.00;95.60;;;;;;5036729;28;20037;-85
2023/09/23 08:16:09;;;;;;;6.93;4.15;;;14.10;95.60;;;;;;5028485;28;20053;-84
2023/09/23 08:18:36;;;;;;;6.15;4.13;;;14.20;95.60;;;;;;5016664;28;20049;-83
2023/09/23 08:21:06;;;;;;;6.30;4.82;;;14.30;95.50;;;;;;5000605;28;20053;-84
2023/09/23 08:23:33;;;;;;;5.03;3.92;;;14.40;95.20;;;;;;4990818;28;20052;-84
2023/09/23 08:26:00;;;;;;;6.32;4.00;;;14.50;95.20;;;;;;5000823;28;20104;-83
2023/09/23 08:28:27;;;;;;;5.65;4.03;;;14.60;95.20;;;;;;5000414;28;20049;-84
2023/09/23 08:30:55;;;;;;;6.10;3.35;;;14.70;95.10;;;;;;4984909;28;20100;-84
2023/09/23 08:33:22;;;;;;;5.45;3.88;;;14.90;95.10;;;;;;4966574;28;20042;-84
2023/09/23 08:35:50;;;;;;;7.38;3.90;;;15.10;94.80;;;;;;4999215;28;20068;-84
2023/09/23 08:38:17;;;;;;;7.38;3.65;;;15.20;94.70;;;;;;4983844;28;20049;-83
2023/09/23 08:40:46;;;;;;;6.78;4.47;;;15.30;94.60;;;;;;4996274;28;20045;-84
2023/09/23 08:43:13;;;;;;;5.65;4.03;;;15.30;94.30;;;;;;5010359;28;20065;-83
2023/09/23 08:45:46;;;;;;;5.47;3.33;;;15.20;94.30;;;;;;5021570;28;20042;-84
2023/09/23 08:48:14;;;;;;;5.57;3.63;;;15.20;94.40;;;;;;4999209;28;20046;-83
2023/09/23 08:50:43;;;;;;;6.03;3.65;;;15.20;94.40;;;;;;4967691;28;20042;-82
2023/09/23 08:53:13;;;;;;;6.45;4.18;;;15.20;94.30;;;;;;5014284;28;20045;-78
2023/09/23 08:55:42;;;;;;;7.30;3.97;;;15.10;94.30;;;;;;4996287;28;20042;-79
2023/09/23 08:58:09;;;;;;;6.70;4.50;;;15.10;94.20;;;;;;4983241;28;20049;-81
2023/09/23 09:00:36;;;;;;;7.70;3.33;;;15.10;94.50;;;;;;4987650;28;20093;-78
2023/09/23 09:03:03;;;;;;;3.28;2.65;;;15.20;94.30;;;;;;4986003;28;20045;-81
2023/09/23 09:05:40;;;;;;;7.05;2.95;;;15.20;94.30;;;;;;4986479;28;20054;-78
2023/09/23 09:08:08;;;;;;;7.05;3.38;;;15.30;94.20;;;;;;5001014;28;20042;-79
2023/09/23 09:10:35;;;;;;;6.47;2.65;;;15.30;94.20;;;;;;5005026;28;20502;-78
2023/09/23 09:13:07;;;;;;;3.78;2.30;;;15.30;94.20;;;;;;4995218;28;20103;-78
2023/09/23 09:15:35;;;;;;;3.08;1.95;;;15.40;94.30;;;;;;4989492;28;20060;-81
2023/09/23 09:18:03;;;;;;;4.20;2.78;;;15.40;94.20;;;;;;5007181;28;20077;-78
2023/09/23 09:20:31;;;;;;;4.55;2.45;;;15.60;94.10;;;;;;5035590;28;20033;-78
2023/09/23 09:22:58;;;;;;;4.90;2.35;;;15.60;94.00;;;;;;5035100;28;20137;-79
2023/09/23 09:25:25;;;;;;;5.68;2.95;;;15.70;93.90;;;;;;5018451;28;20135;-80
2023/09/23 09:27:53;;;;;;;6.35;3.60;;;15.60;93.80;;;;;;5051521;28;20045;-79
2023/09/23 09:30:20;;;;;;;5.75;3.00;;;15.50;93.70;;;;;;4987447;28;20046;-79
2023/09/23 09:32:47;;;;;;;4.07;2.30;;;15.10;93.90;;;;;;5034840;28;20045;-79
2023/09/23 09:35:18;;;;;;;4.80;2.72;;;14.90;94.40;;;;;;5048883;28;20045;-82
2023/09/23 09:37:46;;;;;;;6.00;2.97;;;14.70;94.70;;;;;;5034089;28;20045;-86
2023/09/23 09:40:19;;;;;;;4.88;2.72;;;14.60;95.00;;;;;;5051524;28;20047;-86
2023/09/23 09:42:57;;;;;;;;;;;14.50;95.20;;;;;;4998642;28;20083;-86
2023/09/23 09:45:26;;;;;;;4.30;2.17;;;14.40;95.30;;;;;;5034790;28;20307;-84
2023/09/23 09:48:00;;;;;;;5.80;2.25;;;14.30;95.60;;;;;;5023242;28;20076;-85
2023/09/23 09:50:29;;;;;;;6.38;2.70;;;14.30;95.70;;;;;;5040986;28;20053;-84
2023/09/23 09:52:58;;;;;;;5.40;2.70;;;14.40;95.50;;;;;;5035315;28;20060;-85
2023/09/23 09:55:25;;;;;;;3.58;1.92;;;14.40;95.50;;;;;;5035202;28;20072;-85
2023/09/23 09:57:54;;;;;;;4.45;1.85;;;14.50;95.70;;;;;;5035016;28;20048;-85
2023/09/23 10:00:35;;;;;;;5.18;1.90;;;14.60;95.40;;;;;;5029202;28;20459;-85
2023/09/23 10:03:11;;;;;;;6.13;2.30;;;14.70;95.40;;;;;;5032309;28;20148;-78
2023/09/23 10:05:49;;;;;;;4.90;2.35;;;14.80;95.30;;;;;;5003479;28;20441;-86
2023/09/23 10:08:35;;;;;;;3.33;2.22;;;14.80;95.30;;;;;;5050404;28;20053;-87
2023/09/23 10:11:08;;;;;;;3.47;1.80;;;14.80;95.40;;;;;;5034950;28;20065;-88
2023/09/23 10:13:37;;;;;;;4.15;2.47;;;14.80;95.40;;;;;;5051522;28;20107;-89
2023/09/23 10:16:13;;;;;;;5.47;2.28;;;14.80;95.40;;;;;;5033525;28;20049;-88
2023/09/23 10:18:44;;;;;;;7.18;2.70;;;14.90;95.50;;;;;;5019207;28;20140;-86
2023/09/23 10:21:23;;;;;;;4.63;2.38;;;14.90;95.50;;;;;;5034879;28;20045;-84
2023/09/23 10:24:02;;;;;;;3.92;2.00;;;14.90;95.60;;;;;;5038284;28;20144;-87
2023/09/23 10:26:32;;;;;;;2.72;1.83;;;14.90;95.60;;;;;;5009665;28;20070;-85
2023/09/23 10:29:03;;;;;;;5.40;2.22;;;15.00;95.50;;;;;;5030937;28;20049;-87
2023/09/23 10:31:34;;;;;;;5.00;2.38;;;15.10;95.50;;;;;;5043067;28;20072;-85
2023/09/23 10:34:10;;;;;;;5.65;2.38;;;15.20;95.50;;;;;;5051161;28;20075;-86
2023/09/23 10:36:37;;;;;;;5.10;2.45;;;15.30;95.40;;;;;;5039006;28;20475;-87
2023/09/23 10:39:16;;;;;;;5.15;2.28;;;15.40;95.40;;;;;;5001417;28;20041;-87
2023/09/23 10:41:51;;;;;;;4.22;2.70;;;15.50;95.30;;;;;;5011302;28;20041;-87
2023/09/23 10:44:24;;;;;;;5.82;2.78;;;15.60;95.20;;;;;;5042250;28;20553;-87
2023/09/23 10:46:54;;;;;;;6.53;3.05;;;15.70;95.10;;;;;;5034425;28;20041;-87
2023/09/23 10:49:22;;;;;;;6.78;3.63;;;15.70;94.80;;;;;;5022767;28;20045;-86
2023/09/23 10:51:57;;;;;;;7.10;4.60;;;15.80;94.70;;;;;;5042486;28;20064;-85
2023/09/23 10:54:24;;;;;;;6.93;3.05;;;15.80;94.60;;;;;;5051716;28;20057;-87
2023/09/23 10:56:55;;;;;;;4.47;2.22;;;15.90;94.60;;;;;;5034715;28;20045;-86
2023/09/23 10:59:24;;;;;;;5.28;2.83;;;16.10;94.60;;;;;;5037730;28;20079;-85
2023/09/23 11:01:55;;;;;;;6.88;3.83;;;16.30;94.30;;;;;;5029081;28;20052;-86
2023/09/23 11:04:23;;;;;;;3.05;2.20;;;16.50;94.00;;;;;;5043331;28;20056;-81
2023/09/23 11:06:51;;;;;;;6.57;2.80;;;16.70;94.00;;;;;;5037701;28;20036;-82
2023/09/23 11:09:21;;;;;;;4.13;1.92;;;16.80;93.80;;;;;;5028833;28;20541;-82
2023/09/23 11:12:33;;;;;;;2.92;2.13;;;16.90;93.70;;;;;;5033409;28;20506;-82
2023/09/23 11:15:46;;;;;;;4.63;1.90;;;16.90;93.70;;;;;;5030498;28;20049;-81
2023/09/23 11:18:36;;;;;;;5.60;1.80;;;16.90;93.70;;;;;;5019688;28;20045;-83
2023/09/23 11:21:11;;;;;;;5.47;1.95;;;16.80;93.70;;;;;;5025143;28;20045;-84
2023/09/23 11:24:03;;;;;;;4.07;2.08;;;16.80;93.70;;;;;;5025243;28;20053;-83
2023/09/23 11:26:31;;;;;;;3.25;2.17;;;16.70;93.60;;;;;;5028097;28;20057;-78
2023/09/23 11:29:21;;;;;;;5.25;2.38;;;16.50;93.70;;;;;;5026116;28;20041;-83
2023/09/23 11:32:03;;;;;;;4.88;2.67;;;16.30;94.00;;;;;;4978565;28;20052;-85
2023/09/23 11:34:31;;;;;;;5.90;3.28;;;16.10;94.00;;;;;;5053915;28;20033;-83
2023/09/23 11:37:15;;;;;;;4.43;2.90;;;15.90;94.20;;;;;;5020075;28;20041;-84
2023/09/23 11:39:52;;;;;;;4.53;2.17;;;15.80;94.30;;;;;;5012868;28;20049;-85
2023/09/23 11:42:30;;;;;;;4.13;2.47;;;15.70;94.50;;;;;;5021705;28;20149;-83
2023/09/23 11:45:32;;;;;;;2.47;1.88;;;15.60;94.70;;;;;;5035428;28;20147;-85
2023/09/23 11:48:12;;;;;;;5.10;2.65;;;15.50;94.90;;;;;;5049517;28;20025;-88
2023/09/23 11:51:44;;;;;;;5.22;2.40;;;15.30;95.20;;;;;;5040454;28;20049;-92
2023/09/23 11:54:46;;;;;;;4.00;2.30;;;15.10;95.50;;;;;;5021924;28;20033;-86
2023/09/23 11:57:14;;;;;;;4.93;2.30;;;15.20;95.60;;;;;;5008570;28;20041;-83
2023/09/23 11:59:42;;;;;;;4.32;1.60;;;15.30;95.60;;;;;;5036243;28;20355;-83
2023/09/23 12:02:10;;;;;;;4.05;1.95;;;15.40;95.50;;;;;;5029607;28;20406;-85
2023/09/23 12:04:40;;;;;;;5.05;2.38;;;15.60;95.50;;;;;;5052692;28;20049;-82
2023/09/23 12:07:08;;;;;;;3.75;2.03;;;15.70;95.40;;;;;;5053500;28;20049;-82
2023/09/23 12:09:35;;;;;;;3.88;2.25;;;15.80;95.40;;;;;;5036684;28;20578;-79
2023/09/23 12:12:02;;;;;;;4.20;2.30;;;15.90;95.40;;;;;;5023752;28;20044;-78
2023/09/23 12:14:30;;;;;;;3.97;2.30;;;15.90;95.30;;;;;;5003894;28;20045;-80
2023/09/23 12:16:57;;;;;;;4.13;2.03;;;16.00;95.30;;;;;;5019949;28;20140;-83
2023/09/23 12:19:24;;;;;;;3.90;2.58;;;16.10;95.30;;;;;;5002759;28;20042;-83
2023/09/23 12:21:56;;;;;;;;;;;16.10;95.30;;;;;;5033895;28;20150;-83
2023/09/23 12:24:23;;;;;;;2.38;1.30;;;16.10;95.40;;;;;;5020027;28;19971;-83
2023/09/23 12:26:51;;;;;;;3.08;1.80;;;16.20;95.40;;;;;;5020008;28;20044;-84
2023/09/23 12:29:18;;;;;;;3.75;2.30;;;16.30;95.30;;;;;;5019904;28;20049;-83
2023/09/23 12:31:45;;;;;;;3.70;2.00;;;16.40;95.20;;;;;;5019418;28;20414;-83
2023/09/23 12:34:12;;;;;;;3.78;1.88;;;16.50;95.20;;;;;;5020092;28;20045;-83
2023/09/23 12:36:39;;;;;;;5.20;1.60;;;16.70;94.90;;;;;;5028539;28;20043;-83
2023/09/23 12:39:06;;;;;;;3.28;1.20;;;16.80;94.90;;;;;;5014156;28;20055;-83
2023/09/23 12:41:35;;;;;;;5.85;1.42;;;16.90;94.60;;;;;;5036238;28;20049;-83
2023/09/23 12:44:02;;;;;;;4.78;1.25;;;17.00;94.30;;;;;;5003542;28;20099;-83
2023/09/23 12:46:30;;;;;;;3.22;1.52;;;17.00;94.20;;;;;;5035877;28;20559;-82
2023/09/23 12:48:57;;;;;;;2.85;1.08;;;17.00;94.30;;;;;;5018386;28;20071;-82
2023/09/23 12:51:47;;;;;;;6.13;1.50;;;17.00;94.20;;;;;;5035843;28;20043;-83
2023/09/23 12:54:14;;;;;;;3.85;1.00;;;17.10;93.90;;;;;;5021958;28;20044;-83
2023/09/23 12:56:41;;;;;;;3.22;0.93;;;17.20;93.90;;;;;;5035599;28;20235;-83
2023/09/23 12:59:08;;;;;;;4.45;1.38;;;17.30;93.80;;;;;;5036250;28;20094;-83
2023/09/23 13:01:37;;;;;;;2.60;1.20;;;17.30;93.50;;;;;;5035760;28;20064;-83
2023/09/23 13:04:08;;;;;;;1.90;0.80;;;17.20;93.40;;;;;;5036175;28;20418;-83